TimeEDT,TemperatureF,Dew PointF,Humidity,Sea Level PressureIn,VisibilityMPH,Wind Direction,Wind SpeedMPH,Gust SpeedMPH,PrecipitationIn,Events,Conditions,WindDirDegrees,DateUTC
12:52 AM,26.6,26.6,100,-9999,0.1,NNW,40.3,-,N/A,Fog,Light Freezing Fog,340,2013-09-09 04:52:00
1:52 AM,26.6,26.6,100,-9999,0.1,NNW,41.4,-,N/A,Fog,Light Freezing Fog,340,2013-09-09 05:52:00
2:54 AM,26.6,26.6,100,-9999,0.1,NNW,41.4,-,N/A,Fog,Light Freezing Fog,340,2013-09-09 06:54:00
3:54 AM,28.4,21.2,74,-9999,100.0,NNW,34.5,-,N/A,,Partly Cloudy,340,2013-09-09 07:54:00
4:54 AM,32.0,1.4,27,-9999,100.0,NNW,40.3,-,N/A,,Partly Cloudy,340,2013-09-09 08:54:00
5:54 AM,32.0,6.8,35,-9999,110.0,NNW,36.8,-,N/A,,Scattered Clouds,330,2013-09-09 09:54:00
6:52 AM,35.6,1.4,24,-9999,110.0,NNW,36.8,-,N/A,,Scattered Clouds,340,2013-09-09 10:52:00
7:51 AM,37.4,-14.8,10,-9999,130.0,NNW,40.3,-,N/A,,Mostly Cloudy,330,2013-09-09 11:51:00
8:51 AM,39.2,-9.4,12,-9999,130.0,NNW,36.8,-,N/A,,Mostly Cloudy,330,2013-09-09 12:51:00
9:52 AM,41.0,6.8,24,-9999,130.0,NNW,36.8,-,N/A,,Mostly Cloudy,340,2013-09-09 13:52:00
10:51 AM,42.8,12.2,29,-9999,130.0,NNW,28.8,-,N/A,,Mostly Cloudy,330,2013-09-09 14:51:00
11:50 AM,42.8,5.0,21,-9999,130.0,WNW,24.2,-,N/A,,Mostly Cloudy,300,2013-09-09 15:50:00
12:51 PM,44.6,15.8,31,-9999,130.0,WNW,25.3,29.9,N/A,,Mostly Cloudy,290,2013-09-09 16:51:00
1:51 PM,44.6,17.6,34,-9999,130.0,WNW,32.2,-,N/A,,Mostly Cloudy,290,2013-09-09 17:51:00
2:51 PM,44.6,23.0,43,-9999,125.0,West,32.2,-,N/A,,Mostly Cloudy,280,2013-09-09 18:51:00
3:55 PM,42.8,26.6,53,-9999,125.0,WNW,35.7,-,N/A,,Mostly Cloudy,290,2013-09-09 19:55:00
4:50 PM,44.6,15.8,31,-9999,125.0,WNW,35.7,-,N/A,,Mostly Cloudy,290,2013-09-09 20:50:00
5:54 PM,44.6,10.4,25,-9999,130.0,WNW,42.6,-,N/A,,Mostly Cloudy,290,2013-09-09 21:54:00
6:55 PM,44.6,10.4,25,-9999,130.0,West,36.8,46.0,N/A,,Mostly Cloudy,280,2013-09-09 22:55:00
7:51 PM,44.6,6.8,21,-9999,120.0,West,48.3,-,N/A,,Mostly Cloudy,280,2013-09-09 23:51:00
8:54 PM,44.6,15.8,31,-9999,110.0,West,43.7,-,N/A,,Overcast,280,2013-09-10 00:54:00
9:54 PM,42.8,6.8,23,-9999,110.0,West,46.0,-,N/A,,Mostly Cloudy,280,2013-09-10 01:54:00
10:55 PM,44.6,3.2,18,-9999,100.0,West,34.5,-,N/A,,Overcast,280,2013-09-10 02:55:00
11:54 PM,42.8,19.4,39,-9999,100.0,West,34.5,-,N/A,,Mostly Cloudy,280,2013-09-10 03:54:00